sensor_id;sensor_type;location;lat;lon;timestamp;P1;durP1;ratioP1;P2;durP2;ratioP2
15404;SDS011;7801;48.124;11.590;2023-05-16T00:01:04;1.13;;;1.03;;
15404;SDS011;7801;48.124;11.590;2023-05-16T00:03:29;0.73;;;0.73;;
15404;SDS011;7801;48.124;11.590;2023-05-16T00:05:55;0.60;;;0.60;;
15404;SDS011;7801;48.124;11.590;2023-05-16T00:08:21;1.23;;;1.23;;
15404;SDS011;7801;48.124;11.590;2023-05-16T00:10:47;0.40;;;0.40;;
15404;SDS011;7801;48.124;11.590;2023-05-16T00:13:12;0.93;;;0.93;;
15404;SDS011;7801;48.124;11.590;2023-05-16T00:15:38;2.53;;;1.73;;
15404;SDS011;7801;48.124;11.590;2023-05-16T00:18:03;0.73;;;0.73;;
15404;SDS011;7801;48.124;11.590;2023-05-16T00:20:29;1.07;;;1.07;;
15404;SDS011;7801;48.124;11.590;2023-05-16T00:22:55;0.80;;;0.80;;
15404;SDS011;7801;48.124;11.590;2023-05-16T00:25:24;2.43;;;1.23;;
15404;SDS011;7801;48.124;11.590;2023-05-16T00:27:50;1.40;;;1.30;;
15404;SDS011;7801;48.124;11.590;2023-05-16T00:30:16;1.03;;;1.03;;
15404;SDS011;7801;48.124;11.590;2023-05-16T00:32:41;0.63;;;0.63;;
15404;SDS011;7801;48.124;11.590;2023-05-16T00:35:07;1.00;;;1.00;;
15404;SDS011;7801;48.124;11.590;2023-05-16T00:37:34;0.87;;;0.87;;
15404;SDS011;7801;48.124;11.590;2023-05-16T00:40:00;1.13;;;1.13;;
15404;SDS011;7801;48.124;11.590;2023-05-16T00:42:25;0.67;;;0.67;;
15404;SDS011;7801;48.124;11.590;2023-05-16T00:44:51;0.73;;;0.73;;
15404;SDS011;7801;48.124;11.590;2023-05-16T00:47:16;0.83;;;0.83;;
15404;SDS011;7801;48.124;11.590;2023-05-16T00:49:41;1.03;;;1.03;;
15404;SDS011;7801;48.124;11.590;2023-05-16T00:52:07;1.00;;;1.00;;
15404;SDS011;7801;48.124;11.590;2023-05-16T00:54:32;0.90;;;0.90;;
15404;SDS011;7801;48.124;11.590;2023-05-16T00:56:58;0.67;;;0.67;;
15404;SDS011;7801;48.124;11.590;2023-05-16T00:59:23;0.60;;;0.60;;
15404;SDS011;7801;48.124;11.590;2023-05-16T01:01:49;0.93;;;0.93;;
15404;SDS011;7801;48.124;11.590;2023-05-16T01:04:15;1.03;;;1.03;;
15404;SDS011;7801;48.124;11.590;2023-05-16T01:06:42;2.40;;;1.00;;
15404;SDS011;7801;48.124;11.590;2023-05-16T01:09:08;0.70;;;0.70;;
15404;SDS011;7801;48.124;11.590;2023-05-16T01:11:49;0.70;;;0.70;;
15404;SDS011;7801;48.124;11.590;2023-05-16T01:14:24;0.77;;;0.77;;
15404;SDS011;7801;48.124;11.590;2023-05-16T01:17:06;1.30;;;1.30;;
15404;SDS011;7801;48.124;11.590;2023-05-16T01:22:45;0.80;;;0.80;;
15404;SDS011;7801;48.124;11.590;2023-05-16T01:27:56;4.53;;;1.17;;
15404;SDS011;7801;48.124;11.590;2023-05-16T01:30:23;1.00;;;1.00;;
15404;SDS011;7801;48.124;11.590;2023-05-16T01:32:49;1.07;;;1.07;;
15404;SDS011;7801;48.124;11.590;2023-05-16T01:35:16;0.90;;;0.90;;
15404;SDS011;7801;48.124;11.590;2023-05-16T01:40:54;2.50;;;1.20;;
15404;SDS011;7801;48.124;11.590;2023-05-16T01:43:19;0.80;;;0.80;;
15404;SDS011;7801;48.124;11.590;2023-05-16T01:45:56;1.23;;;1.23;;
15404;SDS011;7801;48.124;11.590;2023-05-16T01:48:29;0.87;;;0.87;;
15404;SDS011;7801;48.124;11.590;2023-05-16T01:50:59;0.70;;;0.70;;
15404;SDS011;7801;48.124;11.590;2023-05-16T01:53:28;1.10;;;1.10;;
15404;SDS011;7801;48.124;11.590;2023-05-16T01:56:00;1.40;;;1.40;;
15404;SDS011;7801;48.124;11.590;2023-05-16T01:58:28;1.00;;;1.00;;
15404;SDS011;7801;48.124;11.590;2023-05-16T02:01:01;0.90;;;0.90;;
15404;SDS011;7801;48.124;11.590;2023-05-16T02:03:28;1.23;;;1.23;;
15404;SDS011;7801;48.124;11.590;2023-05-16T02:05:54;0.87;;;0.87;;
15404;SDS011;7801;48.124;11.590;2023-05-16T02:08:20;0.57;;;0.57;;
15404;SDS011;7801;48.124;11.590;2023-05-16T02:10:45;0.77;;;0.77;;
15404;SDS011;7801;48.124;11.590;2023-05-16T02:13:11;1.43;;;1.43;;
15404;SDS011;7801;48.124;11.590;2023-05-16T02:15:36;0.90;;;0.90;;
15404;SDS011;7801;48.124;11.590;2023-05-16T02:18:01;1.50;;;1.40;;
15404;SDS011;7801;48.124;11.590;2023-05-16T02:20:27;1.77;;;1.67;;
15404;SDS011;7801;48.124;11.590;2023-05-16T02:22:52;1.67;;;1.57;;
15404;SDS011;7801;48.124;11.590;2023-05-16T02:25:17;1.50;;;1.40;;
15404;SDS011;7801;48.124;11.590;2023-05-16T02:27:43;1.33;;;1.33;;
15404;SDS011;7801;48.124;11.590;2023-05-16T02:30:11;1.07;;;1.07;;
15404;SDS011;7801;48.124;11.590;2023-05-16T02:32:38;2.17;;;0.97;;
15404;SDS011;7801;48.124;11.590;2023-05-16T02:35:04;1.17;;;1.17;;
15404;SDS011;7801;48.124;11.590;2023-05-16T02:37:29;1.30;;;1.30;;
15404;SDS011;7801;48.124;11.590;2023-05-16T02:39:54;0.97;;;0.97;;
15404;SDS011;7801;48.124;11.590;2023-05-16T02:42:20;1.37;;;1.27;;
15404;SDS011;7801;48.124;11.590;2023-05-16T02:44:45;1.47;;;1.37;;
15404;SDS011;7801;48.124;11.590;2023-05-16T02:47:10;2.60;;;1.47;;
15404;SDS011;7801;48.124;11.590;2023-05-16T02:49:36;1.47;;;1.47;;
15404;SDS011;7801;48.124;11.590;2023-05-16T02:52:01;1.33;;;1.33;;
15404;SDS011;7801;48.124;11.590;2023-05-16T02:54:26;1.70;;;1.60;;
15404;SDS011;7801;48.124;11.590;2023-05-16T02:56:52;1.83;;;1.83;;
15404;SDS011;7801;48.124;11.590;2023-05-16T02:59:17;1.80;;;1.70;;
15404;SDS011;7801;48.124;11.590;2023-05-16T03:01:43;1.70;;;1.40;;
15404;SDS011;7801;48.124;11.590;2023-05-16T03:04:08;1.27;;;1.27;;
15404;SDS011;7801;48.124;11.590;2023-05-16T03:06:34;2.27;;;2.17;;
15404;SDS011;7801;48.124;11.590;2023-05-16T03:08:59;1.57;;;1.53;;
15404;SDS011;7801;48.124;11.590;2023-05-16T03:11:25;1.57;;;1.57;;
15404;SDS011;7801;48.124;11.590;2023-05-16T03:13:52;1.90;;;1.50;;
15404;SDS011;7801;48.124;11.590;2023-05-16T03:16:18;2.73;;;1.83;;
15404;SDS011;7801;48.124;11.590;2023-05-16T03:18:43;1.70;;;1.23;;
15404;SDS011;7801;48.124;11.590;2023-05-16T03:21:09;2.17;;;0.90;;
15404;SDS011;7801;48.124;11.590;2023-05-16T03:23:34;1.50;;;1.43;;
15404;SDS011;7801;48.124;11.590;2023-05-16T03:25:59;1.40;;;1.40;;
15404;SDS011;7801;48.124;11.590;2023-05-16T03:28:25;1.07;;;1.07;;
15404;SDS011;7801;48.124;11.590;2023-05-16T03:30:50;2.47;;;1.90;;
15404;SDS011;7801;48.124;11.590;2023-05-16T03:33:16;1.50;;;1.50;;
15404;SDS011;7801;48.124;11.590;2023-05-16T03:35:41;1.40;;;1.40;;
15404;SDS011;7801;48.124;11.590;2023-05-16T03:38:07;2.10;;;1.87;;
15404;SDS011;7801;48.124;11.590;2023-05-16T03:40:34;2.07;;;1.97;;
15404;SDS011;7801;48.124;11.590;2023-05-16T03:43:00;2.20;;;2.10;;
15404;SDS011;7801;48.124;11.590;2023-05-16T03:45:29;1.57;;;1.57;;
15404;SDS011;7801;48.124;11.590;2023-05-16T03:47:55;1.33;;;1.23;;
15404;SDS011;7801;48.124;11.590;2023-05-16T03:50:21;6.60;;;2.37;;
15404;SDS011;7801;48.124;11.590;2023-05-16T03:52:46;1.43;;;1.43;;
15404;SDS011;7801;48.124;11.590;2023-05-16T03:55:12;2.10;;;2.00;;
15404;SDS011;7801;48.124;11.590;2023-05-16T03:57:39;2.63;;;2.03;;
15404;SDS011;7801;48.124;11.590;2023-05-16T04:00:06;2.93;;;2.73;;
15404;SDS011;7801;48.124;11.590;2023-05-16T04:02:32;2.60;;;2.00;;
15404;SDS011;7801;48.124;11.590;2023-05-16T04:04:58;1.23;;;1.23;;
15404;SDS011;7801;48.124;11.590;2023-05-16T04:07:23;2.63;;;2.43;;
15404;SDS011;7801;48.124;11.590;2023-05-16T04:09:49;1.97;;;1.87;;
15404;SDS011;7801;48.124;11.590;2023-05-16T04:12:15;1.50;;;1.50;;
15404;SDS011;7801;48.124;11.590;2023-05-16T04:14:41;2.03;;;1.90;;
15404;SDS011;7801;48.124;11.590;2023-05-16T04:17:06;1.87;;;1.77;;
15404;SDS011;7801;48.124;11.590;2023-05-16T04:19:31;1.30;;;1.30;;
15404;SDS011;7801;48.124;11.590;2023-05-16T04:21:57;2.00;;;1.87;;
15404;SDS011;7801;48.124;11.590;2023-05-16T04:24:22;1.80;;;1.70;;
15404;SDS011;7801;48.124;11.590;2023-05-16T04:26:50;1.23;;;1.23;;
15404;SDS011;7801;48.124;11.590;2023-05-16T04:29:16;5.87;;;3.73;;
15404;SDS011;7801;48.124;11.590;2023-05-16T04:31:41;2.10;;;2.00;;
15404;SDS011;7801;48.124;11.590;2023-05-16T04:34:07;2.10;;;2.00;;
15404;SDS011;7801;48.124;11.590;2023-05-16T04:36:32;2.50;;;2.40;;
15404;SDS011;7801;48.124;11.590;2023-05-16T04:38:59;1.37;;;1.37;;
15404;SDS011;7801;48.124;11.590;2023-05-16T04:41:25;1.97;;;1.90;;
15404;SDS011;7801;48.124;11.590;2023-05-16T04:43:50;1.60;;;1.60;;
15404;SDS011;7801;48.124;11.590;2023-05-16T04:46:15;2.83;;;2.27;;
15404;SDS011;7801;48.124;11.590;2023-05-16T04:48:41;4.33;;;2.63;;
15404;SDS011;7801;48.124;11.590;2023-05-16T04:51:06;1.93;;;1.90;;
15404;SDS011;7801;48.124;11.590;2023-05-16T04:53:32;2.33;;;2.23;;
15404;SDS011;7801;48.124;11.590;2023-05-16T04:55:57;2.43;;;2.20;;
15404;SDS011;7801;48.124;11.590;2023-05-16T04:58:23;2.20;;;2.10;;
15404;SDS011;7801;48.124;11.590;2023-05-16T05:00:49;2.20;;;1.83;;
15404;SDS011;7801;48.124;11.590;2023-05-16T05:03:15;1.70;;;1.70;;
15404;SDS011;7801;48.124;11.590;2023-05-16T05:05:41;2.50;;;2.40;;
15404;SDS011;7801;48.124;11.590;2023-05-16T05:08:07;2.37;;;2.27;;
15404;SDS011;7801;48.124;11.590;2023-05-16T05:10:33;2.00;;;1.90;;
15404;SDS011;7801;48.124;11.590;2023-05-16T05:12:58;2.47;;;2.33;;
15404;SDS011;7801;48.124;11.590;2023-05-16T05:15:24;1.93;;;1.83;;
15404;SDS011;7801;48.124;11.590;2023-05-16T05:17:49;1.90;;;1.87;;
15404;SDS011;7801;48.124;11.590;2023-05-16T05:20:15;3.23;;;3.03;;
15404;SDS011;7801;48.124;11.590;2023-05-16T05:22:40;2.37;;;2.17;;
15404;SDS011;7801;48.124;11.590;2023-05-16T05:25:05;3.57;;;1.83;;
15404;SDS011;7801;48.124;11.590;2023-05-16T05:27:31;2.40;;;2.20;;
15404;SDS011;7801;48.124;11.590;2023-05-16T05:29:56;3.23;;;3.03;;
15404;SDS011;7801;48.124;11.590;2023-05-16T05:32:22;3.23;;;3.07;;
15404;SDS011;7801;48.124;11.590;2023-05-16T05:34:47;3.47;;;3.27;;
15404;SDS011;7801;48.124;11.590;2023-05-16T05:37:13;3.17;;;2.83;;
15404;SDS011;7801;48.124;11.590;2023-05-16T05:39:38;3.47;;;3.13;;
15404;SDS011;7801;48.124;11.590;2023-05-16T05:42:03;2.57;;;2.43;;
15404;SDS011;7801;48.124;11.590;2023-05-16T05:44:29;2.33;;;2.23;;
15404;SDS011;7801;48.124;11.590;2023-05-16T05:46:55;2.30;;;2.20;;
15404;SDS011;7801;48.124;11.590;2023-05-16T05:49:21;3.83;;;2.73;;
15404;SDS011;7801;48.124;11.590;2023-05-16T05:51:48;3.27;;;3.07;;
15404;SDS011;7801;48.124;11.590;2023-05-16T05:54:16;2.93;;;2.77;;
15404;SDS011;7801;48.124;11.590;2023-05-16T05:56:42;2.10;;;2.00;;
15404;SDS011;7801;48.124;11.590;2023-05-16T05:59:07;3.17;;;2.97;;
15404;SDS011;7801;48.124;11.590;2023-05-16T06:01:33;2.40;;;2.30;;
15404;SDS011;7801;48.124;11.590;2023-05-16T06:03:58;2.23;;;1.10;;
15404;SDS011;7801;48.124;11.590;2023-05-16T06:06:23;7.97;;;3.53;;
15404;SDS011;7801;48.124;11.590;2023-05-16T06:08:49;2.50;;;2.40;;
15404;SDS011;7801;48.124;11.590;2023-05-16T06:11:14;2.57;;;2.47;;
15404;SDS011;7801;48.124;11.590;2023-05-16T06:13:39;2.23;;;2.13;;
15404;SDS011;7801;48.124;11.590;2023-05-16T06:16:05;2.30;;;2.10;;
15404;SDS011;7801;48.124;11.590;2023-05-16T06:18:30;2.47;;;2.37;;
15404;SDS011;7801;48.124;11.590;2023-05-16T06:20:56;4.13;;;3.63;;
15404;SDS011;7801;48.124;11.590;2023-05-16T06:23:21;3.10;;;2.90;;
15404;SDS011;7801;48.124;11.590;2023-05-16T06:25:46;2.63;;;2.53;;
15404;SDS011;7801;48.124;11.590;2023-05-16T06:28:11;1.77;;;1.67;;
15404;SDS011;7801;48.124;11.590;2023-05-16T06:30:37;6.00;;;2.40;;
15404;SDS011;7801;48.124;11.590;2023-05-16T06:33:02;1.50;;;1.40;;
15404;SDS011;7801;48.124;11.590;2023-05-16T06:35:27;1.20;;;1.20;;
15404;SDS011;7801;48.124;11.590;2023-05-16T06:37:53;3.30;;;2.27;;
15404;SDS011;7801;48.124;11.590;2023-05-16T06:40:18;2.47;;;2.37;;
15404;SDS011;7801;48.124;11.590;2023-05-16T06:42:43;2.83;;;2.70;;
15404;SDS011;7801;48.124;11.590;2023-05-16T06:45:09;2.30;;;2.20;;
15404;SDS011;7801;48.124;11.590;2023-05-16T06:47:35;3.70;;;2.57;;
15404;SDS011;7801;48.124;11.590;2023-05-16T06:50:00;2.13;;;2.07;;
15404;SDS011;7801;48.124;11.590;2023-05-16T06:52:26;1.67;;;1.67;;
15404;SDS011;7801;48.124;11.590;2023-05-16T06:54:52;2.23;;;2.13;;
15404;SDS011;7801;48.124;11.590;2023-05-16T06:57:17;3.60;;;2.73;;
15404;SDS011;7801;48.124;11.590;2023-05-16T06:59:43;3.27;;;2.97;;
15404;SDS011;7801;48.124;11.590;2023-05-16T07:02:08;2.40;;;2.30;;
15404;SDS011;7801;48.124;11.590;2023-05-16T07:04:33;1.87;;;1.70;;
15404;SDS011;7801;48.124;11.590;2023-05-16T07:07:01;2.13;;;2.03;;
15404;SDS011;7801;48.124;11.590;2023-05-16T07:09:27;2.13;;;2.03;;
15404;SDS011;7801;48.124;11.590;2023-05-16T07:11:53;2.80;;;2.70;;
15404;SDS011;7801;48.124;11.590;2023-05-16T07:14:18;3.07;;;2.80;;
15404;SDS011;7801;48.124;11.590;2023-05-16T07:16:43;1.90;;;1.43;;
15404;SDS011;7801;48.124;11.590;2023-05-16T07:19:09;1.90;;;1.80;;
15404;SDS011;7801;48.124;11.590;2023-05-16T07:21:34;1.97;;;1.87;;
15404;SDS011;7801;48.124;11.590;2023-05-16T07:23:59;2.57;;;2.47;;
15404;SDS011;7801;48.124;11.590;2023-05-16T07:26:25;2.57;;;2.47;;
15404;SDS011;7801;48.124;11.590;2023-05-16T07:28:50;2.03;;;1.93;;
15404;SDS011;7801;48.124;11.590;2023-05-16T07:31:16;3.47;;;3.17;;
15404;SDS011;7801;48.124;11.590;2023-05-16T07:33:42;2.23;;;2.13;;
15404;SDS011;7801;48.124;11.590;2023-05-16T07:36:09;1.90;;;1.80;;
15404;SDS011;7801;48.124;11.590;2023-05-16T07:38:35;1.90;;;1.80;;
15404;SDS011;7801;48.124;11.590;2023-05-16T07:41:00;2.03;;;1.93;;
15404;SDS011;7801;48.124;11.590;2023-05-16T07:43:26;3.27;;;3.07;;
15404;SDS011;7801;48.124;11.590;2023-05-16T07:45:51;3.33;;;3.10;;
15404;SDS011;7801;48.124;11.590;2023-05-16T07:48:17;3.40;;;3.10;;
15404;SDS011;7801;48.124;11.590;2023-05-16T07:50:42;3.20;;;3.07;;
15404;SDS011;7801;48.124;11.590;2023-05-16T07:53:08;3.10;;;2.90;;
15404;SDS011;7801;48.124;11.590;2023-05-16T07:55:33;2.87;;;2.67;;
15404;SDS011;7801;48.124;11.590;2023-05-16T07:57:59;3.37;;;3.17;;
15404;SDS011;7801;48.124;11.590;2023-05-16T08:00:28;3.97;;;3.53;;
15404;SDS011;7801;48.124;11.590;2023-05-16T08:02:53;5.87;;;5.47;;
15404;SDS011;7801;48.124;11.590;2023-05-16T08:05:18;3.50;;;3.30;;
15404;SDS011;7801;48.124;11.590;2023-05-16T08:07:44;7.67;;;3.50;;
15404;SDS011;7801;48.124;11.590;2023-05-16T08:10:09;5.20;;;4.50;;
15404;SDS011;7801;48.124;11.590;2023-05-16T08:12:35;2.97;;;2.87;;
15404;SDS011;7801;48.124;11.590;2023-05-16T08:15:00;15.20;;;3.30;;
15404;SDS011;7801;48.124;11.590;2023-05-16T08:17:26;2.87;;;2.73;;
15404;SDS011;7801;48.124;11.590;2023-05-16T08:19:52;4.33;;;3.93;;
15404;SDS011;7801;48.124;11.590;2023-05-16T08:22:17;2.80;;;2.70;;
15404;SDS011;7801;48.124;11.590;2023-05-16T08:24:43;3.60;;;3.40;;
15404;SDS011;7801;48.124;11.590;2023-05-16T08:27:08;4.73;;;4.43;;
15404;SDS011;7801;48.124;11.590;2023-05-16T08:29:33;4.23;;;3.97;;
15404;SDS011;7801;48.124;11.590;2023-05-16T08:31:59;6.07;;;3.43;;
15404;SDS011;7801;48.124;11.590;2023-05-16T08:34:26;3.37;;;3.20;;
15404;SDS011;7801;48.124;11.590;2023-05-16T08:36:55;3.30;;;3.03;;
15404;SDS011;7801;48.124;11.590;2023-05-16T08:39:21;3.70;;;3.50;;
15404;SDS011;7801;48.124;11.590;2023-05-16T08:41:46;4.30;;;3.80;;
15404;SDS011;7801;48.124;11.590;2023-05-16T08:44:11;2.93;;;2.83;;
15404;SDS011;7801;48.124;11.590;2023-05-16T08:46:45;3.80;;;3.50;;
15404;SDS011;7801;48.124;11.590;2023-05-16T08:49:15;4.07;;;3.87;;
15404;SDS011;7801;48.124;11.590;2023-05-16T08:51:41;3.87;;;3.67;;
15404;SDS011;7801;48.124;11.590;2023-05-16T08:54:08;3.13;;;3.03;;
15404;SDS011;7801;48.124;11.590;2023-05-16T08:56:37;4.80;;;4.40;;
15404;SDS011;7801;48.124;11.590;2023-05-16T08:59:02;2.80;;;2.67;;
15404;SDS011;7801;48.124;11.590;2023-05-16T09:01:29;3.13;;;3.03;;
15404;SDS011;7801;48.124;11.590;2023-05-16T09:03:55;3.77;;;3.47;;
15404;SDS011;7801;48.124;11.590;2023-05-16T09:06:21;2.53;;;2.40;;
15404;SDS011;7801;48.124;11.590;2023-05-16T09:08:46;2.77;;;2.67;;
15404;SDS011;7801;48.124;11.590;2023-05-16T09:11:11;3.73;;;3.53;;
15404;SDS011;7801;48.124;11.590;2023-05-16T09:13:40;3.33;;;3.03;;
15404;SDS011;7801;48.124;11.590;2023-05-16T09:16:09;3.93;;;3.63;;
15404;SDS011;7801;48.124;11.590;2023-05-16T09:18:36;2.27;;;2.17;;
15404;SDS011;7801;48.124;11.590;2023-05-16T09:21:02;2.60;;;2.50;;
15404;SDS011;7801;48.124;11.590;2023-05-16T09:23:29;3.73;;;3.53;;
15404;SDS011;7801;48.124;11.590;2023-05-16T09:25:56;3.87;;;3.57;;
15404;SDS011;7801;48.124;11.590;2023-05-16T09:28:22;3.33;;;3.13;;
15404;SDS011;7801;48.124;11.590;2023-05-16T09:30:47;3.53;;;3.30;;
15404;SDS011;7801;48.124;11.590;2023-05-16T09:33:13;4.40;;;4.10;;
15404;SDS011;7801;48.124;11.590;2023-05-16T09:35:39;4.07;;;3.87;;
15404;SDS011;7801;48.124;11.590;2023-05-16T09:38:04;3.70;;;3.50;;
15404;SDS011;7801;48.124;11.590;2023-05-16T09:40:30;3.00;;;2.87;;
15404;SDS011;7801;48.124;11.590;2023-05-16T09:43:02;4.00;;;3.80;;
15404;SDS011;7801;48.124;11.590;2023-05-16T09:45:29;3.33;;;3.13;;
15404;SDS011;7801;48.124;11.590;2023-05-16T09:48:06;3.63;;;3.43;;
15404;SDS011;7801;48.124;11.590;2023-05-16T09:50:35;3.93;;;3.73;;
15404;SDS011;7801;48.124;11.590;2023-05-16T09:53:01;4.60;;;3.40;;
15404;SDS011;7801;48.124;11.590;2023-05-16T09:55:27;2.83;;;2.73;;
15404;SDS011;7801;48.124;11.590;2023-05-16T09:57:54;4.53;;;4.13;;
15404;SDS011;7801;48.124;11.590;2023-05-16T10:00:20;3.37;;;3.20;;
15404;SDS011;7801;48.124;11.590;2023-05-16T10:02:46;3.07;;;2.87;;
15404;SDS011;7801;48.124;11.590;2023-05-16T10:05:13;2.53;;;2.43;;
15404;SDS011;7801;48.124;11.590;2023-05-16T10:07:41;3.40;;;3.20;;
15404;SDS011;7801;48.124;11.590;2023-05-16T10:10:09;2.67;;;2.57;;
15404;SDS011;7801;48.124;11.590;2023-05-16T10:12:36;3.57;;;3.37;;
15404;SDS011;7801;48.124;11.590;2023-05-16T10:15:02;4.30;;;4.00;;
15404;SDS011;7801;48.124;11.590;2023-05-16T10:17:30;2.80;;;2.70;;
15404;SDS011;7801;48.124;11.590;2023-05-16T10:20:02;4.00;;;3.70;;
15404;SDS011;7801;48.124;11.590;2023-05-16T10:22:33;9.43;;;4.60;;
15404;SDS011;7801;48.124;11.590;2023-05-16T10:27:55;3.83;;;3.53;;
15404;SDS011;7801;48.124;11.590;2023-05-16T10:30:22;4.30;;;4.00;;
15404;SDS011;7801;48.124;11.590;2023-05-16T10:32:47;2.60;;;2.50;;
15404;SDS011;7801;48.124;11.590;2023-05-16T10:35:14;3.50;;;3.40;;
15404;SDS011;7801;48.124;11.590;2023-05-16T10:37:40;4.63;;;4.33;;
15404;SDS011;7801;48.124;11.590;2023-05-16T10:40:06;4.33;;;4.03;;
15404;SDS011;7801;48.124;11.590;2023-05-16T10:42:33;3.57;;;3.37;;
15404;SDS011;7801;48.124;11.590;2023-05-16T10:45:14;3.43;;;3.23;;
15404;SDS011;7801;48.124;11.590;2023-05-16T10:48:03;2.93;;;2.83;;
15404;SDS011;7801;48.124;11.590;2023-05-16T10:50:38;3.63;;;3.33;;
15404;SDS011;7801;48.124;11.590;2023-05-16T10:53:14;3.47;;;3.27;;
15404;SDS011;7801;48.124;11.590;2023-05-16T10:56:04;3.27;;;3.17;;
15404;SDS011;7801;48.124;11.590;2023-05-16T11:06:24;3.43;;;3.23;;
15404;SDS011;7801;48.124;11.590;2023-05-16T11:19:46;3.10;;;3.00;;
15404;SDS011;7801;48.124;11.590;2023-05-16T11:22:28;3.93;;;3.63;;
15404;SDS011;7801;48.124;11.590;2023-05-16T11:32:35;2.37;;;2.27;;
15404;SDS011;7801;48.124;11.590;2023-05-16T11:35:02;4.27;;;2.13;;
15404;SDS011;7801;48.124;11.590;2023-05-16T11:37:32;2.47;;;2.37;;
15404;SDS011;7801;48.124;11.590;2023-05-16T11:40:00;2.23;;;2.13;;
15404;SDS011;7801;48.124;11.590;2023-05-16T11:42:32;2.07;;;2.07;;
15404;SDS011;7801;48.124;11.590;2023-05-16T11:45:03;1.27;;;1.23;;
15404;SDS011;7801;48.124;11.590;2023-05-16T11:47:32;7.90;;;2.13;;
15404;SDS011;7801;48.124;11.590;2023-05-16T11:49:58;1.70;;;1.70;;
15404;SDS011;7801;48.124;11.590;2023-05-16T11:52:23;2.10;;;2.00;;
15404;SDS011;7801;48.124;11.590;2023-05-16T11:54:50;2.77;;;2.67;;
15404;SDS011;7801;48.124;11.590;2023-05-16T11:57:15;3.40;;;3.07;;
15404;SDS011;7801;48.124;11.590;2023-05-16T11:59:41;3.30;;;3.10;;
15404;SDS011;7801;48.124;11.590;2023-05-16T12:02:07;2.83;;;2.73;;
15404;SDS011;7801;48.124;11.590;2023-05-16T12:04:34;3.70;;;3.53;;
15404;SDS011;7801;48.124;11.590;2023-05-16T12:07:02;2.30;;;2.20;;
15404;SDS011;7801;48.124;11.590;2023-05-16T12:09:28;1.90;;;1.83;;
15404;SDS011;7801;48.124;11.590;2023-05-16T12:11:54;3.50;;;3.40;;
15404;SDS011;7801;48.124;11.590;2023-05-16T12:14:19;3.40;;;3.30;;
15404;SDS011;7801;48.124;11.590;2023-05-16T12:16:46;4.13;;;3.57;;
15404;SDS011;7801;48.124;11.590;2023-05-16T12:19:13;4.27;;;4.03;;
15404;SDS011;7801;48.124;11.590;2023-05-16T12:21:39;4.83;;;4.33;;
15404;SDS011;7801;48.124;11.590;2023-05-16T12:24:04;4.83;;;4.53;;
15404;SDS011;7801;48.124;11.590;2023-05-16T12:26:34;5.07;;;4.57;;
15404;SDS011;7801;48.124;11.590;2023-05-16T12:29:00;3.97;;;3.77;;
15404;SDS011;7801;48.124;11.590;2023-05-16T12:31:39;3.87;;;3.73;;
15404;SDS011;7801;48.124;11.590;2023-05-16T12:34:18;3.47;;;3.37;;
15404;SDS011;7801;48.124;11.590;2023-05-16T12:36:46;4.33;;;3.73;;
15404;SDS011;7801;48.124;11.590;2023-05-16T12:39:16;4.60;;;4.20;;
15404;SDS011;7801;48.124;11.590;2023-05-16T12:41:42;8.33;;;5.27;;
15404;SDS011;7801;48.124;11.590;2023-05-16T12:44:17;5.70;;;5.10;;
15404;SDS011;7801;48.124;11.590;2023-05-16T12:46:45;6.40;;;5.90;;
15404;SDS011;7801;48.124;11.590;2023-05-16T12:49:12;5.07;;;4.63;;
15404;SDS011;7801;48.124;11.590;2023-05-16T12:51:38;4.47;;;4.23;;
15404;SDS011;7801;48.124;11.590;2023-05-16T12:54:10;4.33;;;3.90;;
15404;SDS011;7801;48.124;11.590;2023-05-16T12:56:36;4.07;;;3.87;;
15404;SDS011;7801;48.124;11.590;2023-05-16T12:59:05;5.33;;;5.03;;
15404;SDS011;7801;48.124;11.590;2023-05-16T13:01:31;4.97;;;4.70;;
15404;SDS011;7801;48.124;11.590;2023-05-16T13:03:58;5.90;;;5.33;;
15404;SDS011;7801;48.124;11.590;2023-05-16T13:06:24;5.17;;;4.70;;
15404;SDS011;7801;48.124;11.590;2023-05-16T13:08:49;5.23;;;4.97;;
15404;SDS011;7801;48.124;11.590;2023-05-16T13:11:14;5.77;;;5.30;;
15404;SDS011;7801;48.124;11.590;2023-05-16T13:13:39;4.33;;;4.13;;
15404;SDS011;7801;48.124;11.590;2023-05-16T13:16:05;4.70;;;4.50;;
15404;SDS011;7801;48.124;11.590;2023-05-16T13:18:30;4.47;;;4.07;;
15404;SDS011;7801;48.124;11.590;2023-05-16T13:20:56;4.70;;;4.47;;
15404;SDS011;7801;48.124;11.590;2023-05-16T13:23:21;3.97;;;3.70;;
15404;SDS011;7801;48.124;11.590;2023-05-16T13:25:46;5.40;;;5.00;;
15404;SDS011;7801;48.124;11.590;2023-05-16T13:28:12;4.63;;;4.43;;
15404;SDS011;7801;48.124;11.590;2023-05-16T13:30:37;4.93;;;4.67;;
15404;SDS011;7801;48.124;11.590;2023-05-16T13:33:03;5.00;;;4.70;;
15404;SDS011;7801;48.124;11.590;2023-05-16T13:35:28;5.10;;;4.60;;
15404;SDS011;7801;48.124;11.590;2023-05-16T13:37:53;6.47;;;6.00;;
15404;SDS011;7801;48.124;11.590;2023-05-16T13:40:19;2.90;;;2.80;;
15404;SDS011;7801;48.124;11.590;2023-05-16T13:42:44;3.00;;;2.90;;
15404;SDS011;7801;48.124;11.590;2023-05-16T13:45:10;2.83;;;2.73;;
15404;SDS011;7801;48.124;11.590;2023-05-16T13:47:36;2.60;;;2.50;;
15404;SDS011;7801;48.124;11.590;2023-05-16T13:50:01;1.20;;;1.20;;
15404;SDS011;7801;48.124;11.590;2023-05-16T13:52:30;2.87;;;2.37;;
15404;SDS011;7801;48.124;11.590;2023-05-16T13:54:56;2.60;;;2.50;;
15404;SDS011;7801;48.124;11.590;2023-05-16T13:57:21;1.83;;;1.73;;
15404;SDS011;7801;48.124;11.590;2023-05-16T13:59:47;1.77;;;1.77;;
15404;SDS011;7801;48.124;11.590;2023-05-16T14:02:12;1.83;;;1.77;;
15404;SDS011;7801;48.124;11.590;2023-05-16T14:04:38;1.70;;;1.70;;
15404;SDS011;7801;48.124;11.590;2023-05-16T14:07:03;4.83;;;2.70;;
15404;SDS011;7801;48.124;11.590;2023-05-16T14:09:29;2.07;;;1.97;;
15404;SDS011;7801;48.124;11.590;2023-05-16T14:11:54;2.33;;;2.23;;
15404;SDS011;7801;48.124;11.590;2023-05-16T14:14:19;1.80;;;1.70;;
15404;SDS011;7801;48.124;11.590;2023-05-16T14:16:45;1.57;;;1.47;;
15404;SDS011;7801;48.124;11.590;2023-05-16T14:19:11;2.50;;;2.30;;
15404;SDS011;7801;48.124;11.590;2023-05-16T14:21:36;1.07;;;1.07;;
15404;SDS011;7801;48.124;11.590;2023-05-16T14:24:02;2.13;;;1.97;;
15404;SDS011;7801;48.124;11.590;2023-05-16T14:26:27;1.50;;;1.50;;
15404;SDS011;7801;48.124;11.590;2023-05-16T14:28:53;3.40;;;3.20;;
15404;SDS011;7801;48.124;11.590;2023-05-16T14:31:20;1.77;;;1.67;;
15404;SDS011;7801;48.124;11.590;2023-05-16T14:33:45;1.33;;;1.33;;
15404;SDS011;7801;48.124;11.590;2023-05-16T14:36:11;2.33;;;2.20;;
15404;SDS011;7801;48.124;11.590;2023-05-16T14:38:37;1.77;;;1.77;;
15404;SDS011;7801;48.124;11.590;2023-05-16T14:41:02;1.90;;;1.90;;
15404;SDS011;7801;48.124;11.590;2023-05-16T14:43:28;2.73;;;2.63;;
15404;SDS011;7801;48.124;11.590;2023-05-16T14:45:53;2.03;;;1.93;;
15404;SDS011;7801;48.124;11.590;2023-05-16T14:48:18;1.80;;;1.70;;
15404;SDS011;7801;48.124;11.590;2023-05-16T14:50:44;2.80;;;2.70;;
15404;SDS011;7801;48.124;11.590;2023-05-16T14:53:09;1.53;;;1.53;;
15404;SDS011;7801;48.124;11.590;2023-05-16T14:55:35;1.87;;;1.87;;
15404;SDS011;7801;48.124;11.590;2023-05-16T14:58:00;1.70;;;1.70;;
15404;SDS011;7801;48.124;11.590;2023-05-16T15:00:26;1.90;;;1.80;;
15404;SDS011;7801;48.124;11.590;2023-05-16T15:02:51;3.73;;;1.83;;
15404;SDS011;7801;48.124;11.590;2023-05-16T15:05:17;2.07;;;1.97;;
15404;SDS011;7801;48.124;11.590;2023-05-16T15:07:43;2.43;;;2.23;;
15404;SDS011;7801;48.124;11.590;2023-05-16T15:10:08;2.37;;;2.27;;
15404;SDS011;7801;48.124;11.590;2023-05-16T15:12:34;1.97;;;1.90;;
15404;SDS011;7801;48.124;11.590;2023-05-16T15:15:00;2.27;;;2.17;;
15404;SDS011;7801;48.124;11.590;2023-05-16T15:17:25;1.70;;;1.60;;
15404;SDS011;7801;48.124;11.590;2023-05-16T15:19:51;2.50;;;2.30;;
15404;SDS011;7801;48.124;11.590;2023-05-16T15:22:18;3.03;;;2.83;;